<?xml version="1.0" encoding="UTF-8" standalone="no" ?>
<gpx xmlns="http://www.topografix.com/GPX/1/1" xmlns:xsi="http://www.w3.org/2001/XMLSchema-instance" xsi:schemaLocation="http://www.topografix.com/GPX/1/1 http://www.topografix.com/GPX/1/1/gpx.xsd" version="1.1" creator="VisuGPX - https://www.visugpx.com">
  <metadata>
    <name>Randonnée de 17km à Pradelles en Haute-Loire</name>
    <desc><![CDATA[
Randonnée en boucle en Haute-Loire de 17km au départ de Pradelles (Auvergne-Rhône-Alpes) via la Fayette, Champ Blazère, Grange de Cayres, le Nirgoult, le Pont d'Allier (Langogne) et les GR70 & GR700.]]></desc>
  </metadata>
  <trk>
    <name><![CDATA[Randonnée de 17km à Pradelles en Haute-Loire]]></name>
    <desc><![CDATA[Randonnée en boucle en Haute-Loire de 17km au départ de Pradelles (Auvergne-Rhône-Alpes) via la Fayette, Champ Blazère, Grange de Cayres, le Nirgoult, le Pont d'Allier (Langogne) et les GR70 & GR700.]]></desc>
    <extensions>
      <line xmlns="http://www.topografix.com/GPX/gpx_style/0/2">
        <color>0000FF</color>
        <width>4</width>
      </line>
    </extensions>
    <trkseg>
      <trkpt lat="44.77022" lon="3.88305">
        <ele>1155.058</ele>
        <time>2018-02-19T16:28:11Z</time>
      </trkpt>
      <trkpt lat="44.77211" lon="3.88418">
        <ele>1175.052</ele>
        <time>2018-02-19T16:28:51Z</time>
      </trkpt>
      <trkpt lat="44.77283" lon="3.88476">
        <ele>1178.017</ele>
        <time>2018-02-19T16:29:31Z</time>
      </trkpt>
      <trkpt lat="44.77373" lon="3.88626">
        <ele>1189.008</ele>
        <time>2018-02-19T16:30:11Z</time>
      </trkpt>
      <trkpt lat="44.77482" lon="3.8882">
        <ele>1194.057</ele>
        <time>2018-02-19T16:30:51Z</time>
      </trkpt>
      <trkpt lat="44.77499" lon="3.88832">
        <ele>1196.087</ele>
        <time>2018-02-19T16:31:31Z</time>
      </trkpt>
      <trkpt lat="44.77549" lon="3.88882">
        <ele>1199.012</ele>
        <time>2018-02-19T16:32:11Z</time>
      </trkpt>
      <trkpt lat="44.77604" lon="3.8889">
        <ele>1200.071</ele>
        <time>2018-02-19T16:32:51Z</time>
      </trkpt>
      <trkpt lat="44.77674" lon="3.88944">
        <ele>1205.022</ele>
        <time>2018-02-19T16:33:31Z</time>
      </trkpt>
      <trkpt lat="44.77724" lon="3.88974">
        <ele>1207.065</ele>
        <time>2018-02-19T16:34:11Z</time>
      </trkpt>
      <trkpt lat="44.77758" lon="3.89049">
        <ele>1214.015</ele>
        <time>2018-02-19T16:34:51Z</time>
      </trkpt>
      <trkpt lat="44.77848" lon="3.89161">
        <ele>1223.068</ele>
        <time>2018-02-19T16:35:31Z</time>
      </trkpt>
      <trkpt lat="44.77985" lon="3.89262">
        <ele>1238.089</ele>
        <time>2018-02-19T16:36:11Z</time>
      </trkpt>
      <trkpt lat="44.78011" lon="3.89227">
        <ele>1237.006</ele>
        <time>2018-02-19T16:36:51Z</time>
      </trkpt>
      <trkpt lat="44.78168" lon="3.89292">
        <ele>1244.026</ele>
        <time>2018-02-19T16:37:31Z</time>
      </trkpt>
      <trkpt lat="44.782" lon="3.89313">
        <ele>1244.008</ele>
        <time>2018-02-19T16:38:11Z</time>
      </trkpt>
      <trkpt lat="44.78146" lon="3.89427">
        <ele>1244.01</ele>
        <time>2018-02-19T16:38:51Z</time>
      </trkpt>
      <trkpt lat="44.78149" lon="3.89549">
        <ele>1246.06</ele>
        <time>2018-02-19T16:39:31Z</time>
      </trkpt>
      <trkpt lat="44.78137" lon="3.89712">
        <ele>1246.015</ele>
        <time>2018-02-19T16:40:11Z</time>
      </trkpt>
      <trkpt lat="44.7811" lon="3.89835">
        <ele>1247.074</ele>
        <time>2018-02-19T16:40:51Z</time>
      </trkpt>
      <trkpt lat="44.78111" lon="3.90079">
        <ele>1243.035</ele>
        <time>2018-02-19T16:41:31Z</time>
      </trkpt>
      <trkpt lat="44.78075" lon="3.90227">
        <ele>1246.028</ele>
        <time>2018-02-19T16:42:11Z</time>
      </trkpt>
      <trkpt lat="44.78076" lon="3.90334">
        <ele>1242.048</ele>
        <time>2018-02-19T16:42:51Z</time>
      </trkpt>
      <trkpt lat="44.7805" lon="3.9044">
        <ele>1235.011</ele>
        <time>2018-02-19T16:43:31Z</time>
      </trkpt>
      <trkpt lat="44.78014" lon="3.90508">
        <ele>1231.065</ele>
        <time>2018-02-19T16:44:11Z</time>
      </trkpt>
      <trkpt lat="44.77944" lon="3.90551">
        <ele>1231.068</ele>
        <time>2018-02-19T16:44:51Z</time>
      </trkpt>
      <trkpt lat="44.77892" lon="3.90613">
        <ele>1230.014</ele>
        <time>2018-02-19T16:45:31Z</time>
      </trkpt>
      <trkpt lat="44.77851" lon="3.90721">
        <ele>1228.008</ele>
        <time>2018-02-19T16:46:11Z</time>
      </trkpt>
      <trkpt lat="44.77662" lon="3.91004">
        <ele>1234.028</ele>
        <time>2018-02-19T16:46:51Z</time>
      </trkpt>
      <trkpt lat="44.77613" lon="3.91066">
        <ele>1237.068</ele>
        <time>2018-02-19T16:47:31Z</time>
      </trkpt>
      <trkpt lat="44.77572" lon="3.91146">
        <ele>1236.023</ele>
        <time>2018-02-19T16:48:11Z</time>
      </trkpt>
      <trkpt lat="44.77444" lon="3.91167">
        <ele>1245.012</ele>
        <time>2018-02-19T16:48:51Z</time>
      </trkpt>
      <trkpt lat="44.771" lon="3.91291">
        <ele>1287.033</ele>
        <time>2018-02-19T16:49:31Z</time>
      </trkpt>
      <trkpt lat="44.77018" lon="3.91339">
        <ele>1290.046</ele>
        <time>2018-02-19T16:50:11Z</time>
      </trkpt>
      <trkpt lat="44.76916" lon="3.91339">
        <ele>1291.016</ele>
        <time>2018-02-19T16:50:51Z</time>
      </trkpt>
      <trkpt lat="44.76623" lon="3.91377">
        <ele>1288.069</ele>
        <time>2018-02-19T16:51:31Z</time>
      </trkpt>
      <trkpt lat="44.76606" lon="3.91435">
        <ele>1289.025</ele>
        <time>2018-02-19T16:52:11Z</time>
      </trkpt>
      <trkpt lat="44.76562" lon="3.91459">
        <ele>1294.026</ele>
        <time>2018-02-19T16:52:51Z</time>
      </trkpt>
      <trkpt lat="44.76545" lon="3.91407">
        <ele>1288.008</ele>
        <time>2018-02-19T16:53:31Z</time>
      </trkpt>
      <trkpt lat="44.76506" lon="3.91399">
        <ele>1288.008</ele>
        <time>2018-02-19T16:54:11Z</time>
      </trkpt>
      <trkpt lat="44.76314" lon="3.91384">
        <ele>1280.054</ele>
        <time>2018-02-19T16:54:51Z</time>
      </trkpt>
      <trkpt lat="44.76251" lon="3.91386">
        <ele>1280.034</ele>
        <time>2018-02-19T16:55:31Z</time>
      </trkpt>
      <trkpt lat="44.76172" lon="3.91354">
        <ele>1273.069</ele>
        <time>2018-02-19T16:56:11Z</time>
      </trkpt>
      <trkpt lat="44.76116" lon="3.91298">
        <ele>1262.088</ele>
        <time>2018-02-19T16:56:51Z</time>
      </trkpt>
      <trkpt lat="44.76056" lon="3.91219">
        <ele>1254.079</ele>
        <time>2018-02-19T16:57:31Z</time>
      </trkpt>
      <trkpt lat="44.7596" lon="3.91148">
        <ele>1248.072</ele>
        <time>2018-02-19T16:58:11Z</time>
      </trkpt>
      <trkpt lat="44.75841" lon="3.91197">
        <ele>1241.052</ele>
        <time>2018-02-19T16:58:51Z</time>
      </trkpt>
      <trkpt lat="44.75796" lon="3.91189">
        <ele>1236.075</ele>
        <time>2018-02-19T16:59:31Z</time>
      </trkpt>
      <trkpt lat="44.75706" lon="3.91101">
        <ele>1229.057</ele>
        <time>2018-02-19T17:00:11Z</time>
      </trkpt>
      <trkpt lat="44.75666" lon="3.91066">
        <ele>1227</ele>
        <time>2018-02-19T17:00:51Z</time>
      </trkpt>
      <trkpt lat="44.75532" lon="3.9095">
        <ele>1222.02</ele>
        <time>2018-02-19T17:01:31Z</time>
      </trkpt>
      <trkpt lat="44.75441" lon="3.90873">
        <ele>1217.008</ele>
        <time>2018-02-19T17:02:11Z</time>
      </trkpt>
      <trkpt lat="44.75426" lon="3.9089">
        <ele>1217.097</ele>
        <time>2018-02-19T17:02:51Z</time>
      </trkpt>
      <trkpt lat="44.75299" lon="3.9086">
        <ele>1211.017</ele>
        <time>2018-02-19T17:03:31Z</time>
      </trkpt>
      <trkpt lat="44.75253" lon="3.90839">
        <ele>1209.052</ele>
        <time>2018-02-19T17:04:11Z</time>
      </trkpt>
      <trkpt lat="44.75069" lon="3.90779">
        <ele>1200.021</ele>
        <time>2018-02-19T17:04:51Z</time>
      </trkpt>
      <trkpt lat="44.74941" lon="3.90716">
        <ele>1195.032</ele>
        <time>2018-02-19T17:05:31Z</time>
      </trkpt>
      <trkpt lat="44.74843" lon="3.90607">
        <ele>1189.095</ele>
        <time>2018-02-19T17:06:11Z</time>
      </trkpt>
      <trkpt lat="44.7483" lon="3.90545">
        <ele>1185.045</ele>
        <time>2018-02-19T17:06:51Z</time>
      </trkpt>
      <trkpt lat="44.74857" lon="3.90382">
        <ele>1175.048</ele>
        <time>2018-02-19T17:07:31Z</time>
      </trkpt>
      <trkpt lat="44.74857" lon="3.90251">
        <ele>1173.086</ele>
        <time>2018-02-19T17:08:11Z</time>
      </trkpt>
      <trkpt lat="44.74882" lon="3.90221">
        <ele>1174.06</ele>
        <time>2018-02-19T17:08:51Z</time>
      </trkpt>
      <trkpt lat="44.74906" lon="3.90206">
        <ele>1174.026</ele>
        <time>2018-02-19T17:09:31Z</time>
      </trkpt>
      <trkpt lat="44.74947" lon="3.90141">
        <ele>1171.008</ele>
        <time>2018-02-19T17:10:11Z</time>
      </trkpt>
      <trkpt lat="44.74979" lon="3.90101">
        <ele>1168.05</ele>
        <time>2018-02-19T17:10:51Z</time>
      </trkpt>
      <trkpt lat="44.74987" lon="3.90047">
        <ele>1162.09</ele>
        <time>2018-02-19T17:11:31Z</time>
      </trkpt>
      <trkpt lat="44.74947" lon="3.90017">
        <ele>1161.065</ele>
        <time>2018-02-19T17:12:11Z</time>
      </trkpt>
      <trkpt lat="44.74927" lon="3.89991">
        <ele>1156.084</ele>
        <time>2018-02-19T17:12:51Z</time>
      </trkpt>
      <trkpt lat="44.74807" lon="3.89968">
        <ele>1148.055</ele>
        <time>2018-02-19T17:13:31Z</time>
      </trkpt>
      <trkpt lat="44.74757" lon="3.89965">
        <ele>1146.018</ele>
        <time>2018-02-19T17:14:11Z</time>
      </trkpt>
      <trkpt lat="44.74718" lon="3.8992">
        <ele>1142.078</ele>
        <time>2018-02-19T17:14:51Z</time>
      </trkpt>
      <trkpt lat="44.7468" lon="3.89918">
        <ele>1141.021</ele>
        <time>2018-02-19T17:15:31Z</time>
      </trkpt>
      <trkpt lat="44.74635" lon="3.89888">
        <ele>1136.032</ele>
        <time>2018-02-19T17:16:11Z</time>
      </trkpt>
      <trkpt lat="44.74606" lon="3.89882">
        <ele>1135.092</ele>
        <time>2018-02-19T17:16:51Z</time>
      </trkpt>
      <trkpt lat="44.7458" lon="3.89837">
        <ele>1130.011</ele>
        <time>2018-02-19T17:17:31Z</time>
      </trkpt>
      <trkpt lat="44.74511" lon="3.89624">
        <ele>1126.008</ele>
        <time>2018-02-19T17:18:11Z</time>
      </trkpt>
      <trkpt lat="44.74488" lon="3.89588">
        <ele>1124.085</ele>
        <time>2018-02-19T17:18:51Z</time>
      </trkpt>
      <trkpt lat="44.74437" lon="3.89513">
        <ele>1120.035</ele>
        <time>2018-02-19T17:19:31Z</time>
      </trkpt>
      <trkpt lat="44.74372" lon="3.8935">
        <ele>1106.01</ele>
        <time>2018-02-19T17:20:11Z</time>
      </trkpt>
      <trkpt lat="44.74348" lon="3.89337">
        <ele>1104.029</ele>
        <time>2018-02-19T17:20:51Z</time>
      </trkpt>
      <trkpt lat="44.7427" lon="3.8933">
        <ele>1099.05</ele>
        <time>2018-02-19T17:21:31Z</time>
      </trkpt>
      <trkpt lat="44.7417" lon="3.89219">
        <ele>1093.033</ele>
        <time>2018-02-19T17:22:11Z</time>
      </trkpt>
      <trkpt lat="44.74069" lon="3.89111">
        <ele>1088.013</ele>
        <time>2018-02-19T17:22:51Z</time>
      </trkpt>
      <trkpt lat="44.74039" lon="3.89096">
        <ele>1087.096</ele>
        <time>2018-02-19T17:23:31Z</time>
      </trkpt>
      <trkpt lat="44.7402" lon="3.89038">
        <ele>1086.058</ele>
        <time>2018-02-19T17:24:11Z</time>
      </trkpt>
      <trkpt lat="44.73987" lon="3.88976">
        <ele>1082.052</ele>
        <time>2018-02-19T17:24:51Z</time>
      </trkpt>
      <trkpt lat="44.73958" lon="3.88888">
        <ele>1081.017</ele>
        <time>2018-02-19T17:25:31Z</time>
      </trkpt>
      <trkpt lat="44.73921" lon="3.8871">
        <ele>1087.008</ele>
        <time>2018-02-19T17:26:11Z</time>
      </trkpt>
      <trkpt lat="44.73903" lon="3.88648">
        <ele>1086.087</ele>
        <time>2018-02-19T17:26:51Z</time>
      </trkpt>
      <trkpt lat="44.73856" lon="3.88571">
        <ele>1081.087</ele>
        <time>2018-02-19T17:27:31Z</time>
      </trkpt>
      <trkpt lat="44.73831" lon="3.88491">
        <ele>1077.032</ele>
        <time>2018-02-19T17:28:11Z</time>
      </trkpt>
      <trkpt lat="44.73819" lon="3.8844">
        <ele>1078.031</ele>
        <time>2018-02-19T17:28:51Z</time>
      </trkpt>
      <trkpt lat="44.73821" lon="3.88358">
        <ele>1081.072</ele>
        <time>2018-02-19T17:29:31Z</time>
      </trkpt>
      <trkpt lat="44.73801" lon="3.88253">
        <ele>1081.015</ele>
        <time>2018-02-19T17:30:11Z</time>
      </trkpt>
      <trkpt lat="44.73798" lon="3.88142">
        <ele>1081.045</ele>
        <time>2018-02-19T17:30:51Z</time>
      </trkpt>
      <trkpt lat="44.73783" lon="3.88071">
        <ele>1081.038</ele>
        <time>2018-02-19T17:31:31Z</time>
      </trkpt>
      <trkpt lat="44.73777" lon="3.87948">
        <ele>1079.016</ele>
        <time>2018-02-19T17:32:11Z</time>
      </trkpt>
      <trkpt lat="44.73741" lon="3.87802">
        <ele>1079.076</ele>
        <time>2018-02-19T17:32:51Z</time>
      </trkpt>
      <trkpt lat="44.73737" lon="3.87712">
        <ele>1077.013</ele>
        <time>2018-02-19T17:33:31Z</time>
      </trkpt>
      <trkpt lat="44.73758" lon="3.87579">
        <ele>1074.008</ele>
        <time>2018-02-19T17:34:11Z</time>
      </trkpt>
      <trkpt lat="44.73769" lon="3.87378">
        <ele>1071.023</ele>
        <time>2018-02-19T17:34:51Z</time>
      </trkpt>
      <trkpt lat="44.73769" lon="3.87116">
        <ele>1064.093</ele>
        <time>2018-02-19T17:35:31Z</time>
      </trkpt>
      <trkpt lat="44.73813" lon="3.86873">
        <ele>1058.038</ele>
        <time>2018-02-19T17:36:11Z</time>
      </trkpt>
      <trkpt lat="44.73789" lon="3.86824">
        <ele>1054.027</ele>
        <time>2018-02-19T17:36:51Z</time>
      </trkpt>
      <trkpt lat="44.73734" lon="3.8679">
        <ele>1048.058</ele>
        <time>2018-02-19T17:37:31Z</time>
      </trkpt>
      <trkpt lat="44.73766" lon="3.86717">
        <ele>1046.051</ele>
        <time>2018-02-19T17:38:11Z</time>
      </trkpt>
      <trkpt lat="44.73807" lon="3.86547">
        <ele>1029.021</ele>
        <time>2018-02-19T17:38:51Z</time>
      </trkpt>
      <trkpt lat="44.73777" lon="3.86517">
        <ele>1027.054</ele>
        <time>2018-02-19T17:39:31Z</time>
      </trkpt>
      <trkpt lat="44.73763" lon="3.86476">
        <ele>1022.097</ele>
        <time>2018-02-19T17:40:11Z</time>
      </trkpt>
      <trkpt lat="44.73738" lon="3.86483">
        <ele>1013.023</ele>
        <time>2018-02-19T17:40:51Z</time>
      </trkpt>
      <trkpt lat="44.73711" lon="3.86511">
        <ele>1015.025</ele>
        <time>2018-02-19T17:41:31Z</time>
      </trkpt>
      <trkpt lat="44.73626" lon="3.86536">
        <ele>998.008</ele>
        <time>2018-02-19T17:42:11Z</time>
      </trkpt>
      <trkpt lat="44.73577" lon="3.86539">
        <ele>982.021</ele>
        <time>2018-02-19T17:42:51Z</time>
      </trkpt>
      <trkpt lat="44.73478" lon="3.86592">
        <ele>972.031</ele>
        <time>2018-02-19T17:43:31Z</time>
      </trkpt>
      <trkpt lat="44.7344" lon="3.86637">
        <ele>971.056</ele>
        <time>2018-02-19T17:44:11Z</time>
      </trkpt>
      <trkpt lat="44.73379" lon="3.86624">
        <ele>960.095</ele>
        <time>2018-02-19T17:44:51Z</time>
      </trkpt>
      <trkpt lat="44.73341" lon="3.86637">
        <ele>957.036</ele>
        <time>2018-02-19T17:45:31Z</time>
      </trkpt>
      <trkpt lat="44.73385" lon="3.86504">
        <ele>952.019</ele>
        <time>2018-02-19T17:46:11Z</time>
      </trkpt>
      <trkpt lat="44.73415" lon="3.86382">
        <ele>941.079</ele>
        <time>2018-02-19T17:46:51Z</time>
      </trkpt>
      <trkpt lat="44.73397" lon="3.86305">
        <ele>935.062</ele>
        <time>2018-02-19T17:47:31Z</time>
      </trkpt>
      <trkpt lat="44.73345" lon="3.8624">
        <ele>929.084</ele>
        <time>2018-02-19T17:48:11Z</time>
      </trkpt>
      <trkpt lat="44.73266" lon="3.86193">
        <ele>918.007</ele>
        <time>2018-02-19T17:48:51Z</time>
      </trkpt>
      <trkpt lat="44.73257" lon="3.86161">
        <ele>912.017</ele>
        <time>2018-02-19T17:49:31Z</time>
      </trkpt>
      <trkpt lat="44.73344" lon="3.86028">
        <ele>915.008</ele>
        <time>2018-02-19T17:50:11Z</time>
      </trkpt>
      <trkpt lat="44.73418" lon="3.85972">
        <ele>915.09</ele>
        <time>2018-02-19T17:50:51Z</time>
      </trkpt>
      <trkpt lat="44.73449" lon="3.8591">
        <ele>907.02</ele>
        <time>2018-02-19T17:51:31Z</time>
      </trkpt>
      <trkpt lat="44.73496" lon="3.85873">
        <ele>907.015</ele>
        <time>2018-02-19T17:52:11Z</time>
      </trkpt>
      <trkpt lat="44.7352" lon="3.85835">
        <ele>908.074</ele>
        <time>2018-02-19T17:52:51Z</time>
      </trkpt>
      <trkpt lat="44.73562" lon="3.85841">
        <ele>910.025</ele>
        <time>2018-02-19T17:53:31Z</time>
      </trkpt>
      <trkpt lat="44.73679" lon="3.85745">
        <ele>905.098</ele>
        <time>2018-02-19T17:54:11Z</time>
      </trkpt>
      <trkpt lat="44.73706" lon="3.85743">
        <ele>905.018</ele>
        <time>2018-02-19T17:54:51Z</time>
      </trkpt>
      <trkpt lat="44.73731" lon="3.85693">
        <ele>905.011</ele>
        <time>2018-02-19T17:55:31Z</time>
      </trkpt>
      <trkpt lat="44.73897" lon="3.85738">
        <ele>921.038</ele>
        <time>2018-02-19T17:56:11Z</time>
      </trkpt>
      <trkpt lat="44.73927" lon="3.85719">
        <ele>929.07</ele>
        <time>2018-02-19T17:56:51Z</time>
      </trkpt>
      <trkpt lat="44.73982" lon="3.85667">
        <ele>935.017</ele>
        <time>2018-02-19T17:57:31Z</time>
      </trkpt>
      <trkpt lat="44.74022" lon="3.85642">
        <ele>940.008</ele>
        <time>2018-02-19T17:58:11Z</time>
      </trkpt>
      <trkpt lat="44.74161" lon="3.85728">
        <ele>956.065</ele>
        <time>2018-02-19T17:58:51Z</time>
      </trkpt>
      <trkpt lat="44.74185" lon="3.85779">
        <ele>962.015</ele>
        <time>2018-02-19T17:59:31Z</time>
      </trkpt>
      <trkpt lat="44.74191" lon="3.85858">
        <ele>963.05</ele>
        <time>2018-02-19T18:00:11Z</time>
      </trkpt>
      <trkpt lat="44.74228" lon="3.85925">
        <ele>964.029</ele>
        <time>2018-02-19T18:00:51Z</time>
      </trkpt>
      <trkpt lat="44.74275" lon="3.85961">
        <ele>970.06</ele>
        <time>2018-02-19T18:01:31Z</time>
      </trkpt>
      <trkpt lat="44.7444" lon="3.86013">
        <ele>967.063</ele>
        <time>2018-02-19T18:02:11Z</time>
      </trkpt>
      <trkpt lat="44.7456" lon="3.85929">
        <ele>974.063</ele>
        <time>2018-02-19T18:02:51Z</time>
      </trkpt>
      <trkpt lat="44.74633" lon="3.85976">
        <ele>977.096</ele>
        <time>2018-02-19T18:03:31Z</time>
      </trkpt>
      <trkpt lat="44.74766" lon="3.86109">
        <ele>995.027</ele>
        <time>2018-02-19T18:04:11Z</time>
      </trkpt>
      <trkpt lat="44.74828" lon="3.86157">
        <ele>999.068</ele>
        <time>2018-02-19T18:04:51Z</time>
      </trkpt>
      <trkpt lat="44.74939" lon="3.86193">
        <ele>1007.014</ele>
        <time>2018-02-19T18:05:31Z</time>
      </trkpt>
      <trkpt lat="44.7499" lon="3.86225">
        <ele>1008.008</ele>
        <time>2018-02-19T18:06:11Z</time>
      </trkpt>
      <trkpt lat="44.75081" lon="3.86328">
        <ele>1008.094</ele>
        <time>2018-02-19T18:06:51Z</time>
      </trkpt>
      <trkpt lat="44.75121" lon="3.86397">
        <ele>1011.084</ele>
        <time>2018-02-19T18:07:31Z</time>
      </trkpt>
      <trkpt lat="44.75194" lon="3.8653">
        <ele>1015.089</ele>
        <time>2018-02-19T18:08:11Z</time>
      </trkpt>
      <trkpt lat="44.75281" lon="3.86665">
        <ele>1011.068</ele>
        <time>2018-02-19T18:08:51Z</time>
      </trkpt>
      <trkpt lat="44.75357" lon="3.86762">
        <ele>1009.079</ele>
        <time>2018-02-19T18:09:31Z</time>
      </trkpt>
      <trkpt lat="44.75401" lon="3.86805">
        <ele>1009.072</ele>
        <time>2018-02-19T18:10:11Z</time>
      </trkpt>
      <trkpt lat="44.75488" lon="3.86916">
        <ele>1012.012</ele>
        <time>2018-02-19T18:10:51Z</time>
      </trkpt>
      <trkpt lat="44.75511" lon="3.86963">
        <ele>1014.015</ele>
        <time>2018-02-19T18:11:31Z</time>
      </trkpt>
      <trkpt lat="44.75532" lon="3.87049">
        <ele>1015.095</ele>
        <time>2018-02-19T18:12:11Z</time>
      </trkpt>
      <trkpt lat="44.75592" lon="3.87137">
        <ele>1019.049</ele>
        <time>2018-02-19T18:12:51Z</time>
      </trkpt>
      <trkpt lat="44.75691" lon="3.87249">
        <ele>1024.023</ele>
        <time>2018-02-19T18:13:31Z</time>
      </trkpt>
      <trkpt lat="44.75799" lon="3.87339">
        <ele>1036.008</ele>
        <time>2018-02-19T18:14:11Z</time>
      </trkpt>
      <trkpt lat="44.75912" lon="3.87421">
        <ele>1046.031</ele>
        <time>2018-02-19T18:14:51Z</time>
      </trkpt>
      <trkpt lat="44.7598" lon="3.87485">
        <ele>1051.081</ele>
        <time>2018-02-19T18:15:31Z</time>
      </trkpt>
      <trkpt lat="44.76011" lon="3.87575">
        <ele>1059.036</ele>
        <time>2018-02-19T18:16:11Z</time>
      </trkpt>
      <trkpt lat="44.76041" lon="3.8768">
        <ele>1063.075</ele>
        <time>2018-02-19T18:16:51Z</time>
      </trkpt>
      <trkpt lat="44.76101" lon="3.87775">
        <ele>1066.026</ele>
        <time>2018-02-19T18:17:31Z</time>
      </trkpt>
      <trkpt lat="44.76154" lon="3.87916">
        <ele>1078.069</ele>
        <time>2018-02-19T18:18:11Z</time>
      </trkpt>
      <trkpt lat="44.76181" lon="3.87981">
        <ele>1086.079</ele>
        <time>2018-02-19T18:18:51Z</time>
      </trkpt>
      <trkpt lat="44.76228" lon="3.88045">
        <ele>1089.082</ele>
        <time>2018-02-19T18:19:31Z</time>
      </trkpt>
      <trkpt lat="44.76375" lon="3.88174">
        <ele>1097.085</ele>
        <time>2018-02-19T18:20:11Z</time>
      </trkpt>
      <trkpt lat="44.76487" lon="3.88223">
        <ele>1106.089</ele>
        <time>2018-02-19T18:20:51Z</time>
      </trkpt>
      <trkpt lat="44.76664" lon="3.88332">
        <ele>1122.017</ele>
        <time>2018-02-19T18:21:31Z</time>
      </trkpt>
      <trkpt lat="44.76707" lon="3.88322">
        <ele>1126.008</ele>
        <time>2018-02-19T18:22:11Z</time>
      </trkpt>
      <trkpt lat="44.76774" lon="3.8824">
        <ele>1128.07</ele>
        <time>2018-02-19T18:22:51Z</time>
      </trkpt>
      <trkpt lat="44.7682" lon="3.88219">
        <ele>1131.08</ele>
        <time>2018-02-19T18:23:31Z</time>
      </trkpt>
      <trkpt lat="44.76873" lon="3.8821">
        <ele>1142.035</ele>
        <time>2018-02-19T18:24:11Z</time>
      </trkpt>
      <trkpt lat="44.76949" lon="3.88187">
        <ele>1147.034</ele>
        <time>2018-02-19T18:24:51Z</time>
      </trkpt>
    </trkseg>
  </trk>
</gpx>